Time;durP1;ratioP1;P1;durP2;ratioP2;P2;SDS_P1;SDS_P2;PMS_P1;PMS_P2;Temp;Humidity;BMP_temperature;BMP_pressure;BME280_temperature;BME280_humidity;BME280_pressure;Samples;Min_cycle;Max_cycle;Signal;HPM_P1;HPM_P2
2023/03/23 00:00:56;;;;;;;1.77;1.50;;;;;;;8.55;100.00;99263.19;5052404;28;20211;-74
2023/03/23 00:03:24;;;;;;;2.57;1.73;;;;;;;8.68;100.00;99258.97;5052500;28;20234;-74
2023/03/23 00:05:52;;;;;;;1.90;1.70;;;;;;;8.83;100.00;99259.75;5052530;28;20660;-74
2023/03/23 00:08:20;;;;;;;2.73;2.10;;;;;;;8.83;100.00;99263.13;5052423;28;20775;-74
2023/03/23 00:10:52;;;;;;;1.60;1.20;;;;;;;8.93;100.00;99265.09;5052117;28;20205;-74
2023/03/23 00:13:19;;;;;;;1.70;1.50;;;;;;;8.71;100.00;99261.34;5052087;28;20235;-74
2023/03/23 00:15:49;;;;;;;2.13;1.43;;;;;;;8.70;100.00;99259.72;5051015;28;20839;-74
2023/03/23 00:18:21;;;;;;;2.37;1.80;;;;;;;8.70;100.00;99257.16;5052207;28;20644;-74
2023/03/23 00:20:48;;;;;;;2.47;2.27;;;;;;;8.76;100.00;99254.22;5052053;28;20660;-74
2023/03/23 00:23:18;;;;;;;3.03;2.07;;;;;;;8.89;100.00;99256.81;5052053;28;20265;-74
2023/03/23 00:25:47;;;;;;;4.17;2.13;;;;;;;8.89;100.00;99258.56;5052053;28;20241;-74
2023/03/23 00:28:14;;;;;;;1.63;1.53;;;;;;;8.87;100.00;99260.38;5051779;28;20223;-74
2023/03/23 00:30:44;;;;;;;4.00;2.03;;;;;;;8.83;100.00;99255.47;5051903;28;20196;-74
2023/03/23 00:33:13;;;;;;;3.57;1.80;;;;;;;8.89;100.00;99253.47;5051817;28;20231;-74
2023/03/23 00:35:44;;;;;;;2.70;1.57;;;;;;;8.86;100.00;99248.56;5051856;28;20195;-74
2023/03/23 00:38:11;;;;;;;4.30;2.50;;;;;;;8.95;100.00;99248.78;5051735;28;20323;-74
2023/03/23 00:40:38;;;;;;;3.77;2.23;;;;;;;9.09;100.00;99250.47;5051633;28;20199;-74
2023/03/23 00:43:05;;;;;;;3.47;2.00;;;;;;;9.02;100.00;99255.16;5051743;28;20242;-74
2023/03/23 00:45:34;;;;;;;2.57;1.97;;;;;;;9.03;100.00;99248.31;5051429;28;20199;-74
2023/03/23 00:48:04;;;;;;;2.20;1.67;;;;;;;9.03;100.00;99245.75;5051666;28;20226;-74
2023/03/23 00:50:33;;;;;;;2.53;1.37;;;;;;;9.04;100.00;99253.28;5051925;28;20200;-74
2023/03/23 00:53:00;;;;;;;1.23;1.13;;;;;;;8.98;100.00;99248.59;5051405;28;20233;-74
2023/03/23 00:55:27;;;;;;;2.80;2.40;;;;;;;9.00;100.00;99240.84;5051453;28;20711;-74
2023/03/23 00:57:53;;;;;;;3.23;2.30;;;;;;;9.01;100.00;99245.03;5051573;28;20199;-74
2023/03/23 01:00:22;;;;;;;2.70;2.23;;;;;;;8.95;100.00;99247.97;5051202;28;20202;-74
2023/03/23 01:02:51;;;;;;;2.23;1.83;;;;;;;9.01;100.00;99242.47;5051352;28;20206;-74
2023/03/23 01:05:18;;;;;;;5.30;2.63;;;;;;;9.07;100.00;99234.44;5051354;28;20196;-74
2023/03/23 01:07:47;;;;;;;2.53;2.20;;;;;;;9.06;100.00;99237.91;5051358;28;20203;-74
2023/03/23 01:10:15;;;;;;;5.57;2.50;;;;;;;9.03;100.00;99241.47;5051087;28;20207;-74
2023/03/23 01:12:43;;;;;;;4.10;2.30;;;;;;;8.99;100.00;99234.13;5050769;28;20243;-74
2023/03/23 01:15:14;;;;;;;3.97;2.33;;;;;;;8.96;100.00;99234.28;5050956;28;20724;-75
2023/03/23 01:17:41;;;;;;;2.00;1.80;;;;;;;8.94;100.00;99236.16;5051034;28;20198;-74
2023/03/23 01:20:09;;;;;;;2.77;1.90;;;;;;;8.96;100.00;99235.13;5050962;28;20210;-74
2023/03/23 01:22:36;;;;;;;3.80;2.57;;;;;;;8.98;100.00;99232.47;5050913;28;20199;-75
2023/03/23 01:25:05;;;;;;;2.40;2.13;;;;;;;9.01;100.00;99238.19;5050652;28;20234;-74
2023/03/23 01:27:32;;;;;;;4.70;2.33;;;;;;;8.90;100.00;99229.59;5050584;28;20694;-74
2023/03/23 01:29:59;;;;;;;5.00;2.90;;;;;;;8.87;100.00;99228.03;5050493;28;20273;-74
2023/03/23 01:32:26;;;;;;;4.07;2.50;;;;;;;8.96;100.00;99234.28;5050726;28;20218;-74
2023/03/23 01:34:53;;;;;;;6.50;2.83;;;;;;;8.96;100.00;99231.75;5050252;28;20243;-74
2023/03/23 01:37:25;;;;;;;3.00;2.30;;;;;;;9.00;100.00;99235.75;5050847;28;20199;-74
2023/03/23 01:39:53;;;;;;;5.00;3.67;;;;;;;8.96;100.00;99234.28;5050678;28;20284;-74
2023/03/23 01:42:23;;;;;;;3.17;2.50;;;;;;;9.02;100.00;99233.94;5050571;28;20412;-74
2023/03/23 01:45:27;;;;;;;4.40;2.80;;;;;;;8.99;100.00;99229.84;5050691;28;20226;-74
2023/03/23 01:48:00;;;;;;;2.93;2.30;;;;;;;8.93;100.00;99225.13;5050437;28;20233;-74
2023/03/23 01:50:29;;;;;;;4.80;3.37;;;;;;;8.96;100.00;99224.09;5050312;28;20565;-75
2023/03/23 01:52:58;;;;;;;4.00;2.20;;;;;;;9.03;100.00;99233.81;5050524;28;20222;-74
2023/03/23 01:55:28;;;;;;;4.03;2.73;;;;;;;9.02;100.00;99231.38;5050238;28;20204;-74
2023/03/23 01:57:57;;;;;;;2.60;2.40;;;;;;;9.02;100.00;99229.66;5050213;28;20594;-74
2023/03/23 02:00:25;;;;;;;4.57;2.80;;;;;;;9.16;100.00;99235.59;5050135;28;20192;-74
2023/03/23 02:02:54;;;;;;;4.17;3.30;;;;;;;9.12;100.00;99224.75;5050298;28;20200;-74
2023/03/23 02:05:28;;;;;;;3.30;2.40;;;;;;;9.02;100.00;99239.84;5050282;28;20203;-74
2023/03/23 02:08:02;;;;;;;5.50;2.53;;;;;;;9.04;100.00;99242.28;5050095;28;20195;-74
2023/03/23 02:10:30;;;;;;;3.90;2.83;;;;;;;9.16;100.00;99236.44;5050018;28;20205;-74
2023/03/23 02:12:58;;;;;;;4.00;2.83;;;;;;;9.02;100.00;99239.03;5050236;28;20604;-75
2023/03/23 02:15:28;;;;;;;3.83;2.50;;;;;;;9.02;100.00;99233.94;5049935;28;20719;-74
2023/03/23 02:18:02;;;;;;;4.57;2.27;;;;;;;9.05;100.00;99242.19;5050153;28;20656;-75
2023/03/23 02:20:50;;;;;;;2.23;1.80;;;;;;;9.21;100.00;99249.69;5049820;28;20214;-74
2023/03/23 02:23:53;;;;;;;5.13;2.60;;;;;;;9.16;100.00;99249.19;5050174;28;20223;-74
2023/03/23 02:26:38;;;;;;;4.17;2.67;;;;;;;9.23;100.00;99252.97;5034094;28;20206;-74
2023/03/23 02:29:46;;;;;;;6.10;2.80;;;;;;;9.15;100.00;99250.06;5049921;28;20247;-74
2023/03/23 02:32:22;;;;;;;3.93;2.37;;;;;;;9.06;100.00;99248.13;5049948;28;20599;-74
2023/03/23 02:34:54;;;;;;;3.47;3.00;;;;;;;9.02;100.00;99254.34;5049723;28;20241;-74
2023/03/23 02:37:28;;;;;;;3.73;2.77;;;;;;;8.96;100.00;99249.59;5049922;28;20199;-74
2023/03/23 02:39:59;;;;;;;3.87;2.33;;;;;;;8.82;100.00;99248.75;5054747;28;20642;-74
2023/03/23 02:42:31;;;;;;;4.50;2.77;;;;;;;8.75;100.00;99252.56;5056347;28;20221;-74
2023/03/23 02:45:03;;;;;;;2.97;2.67;;;;;;;8.90;100.00;99249.97;5056534;28;20257;-75
2023/03/23 02:47:31;;;;;;;3.73;2.00;;;;;;;8.96;100.00;99249.59;5056632;28;20210;-74
2023/03/23 02:50:00;;;;;;;4.80;3.20;;;;;;;8.97;100.00;99256.34;5056015;28;20215;-74
2023/03/23 02:52:31;;;;;;;3.30;2.93;;;;;;;9.00;100.00;99256.97;5056237;28;20203;-74
2023/03/23 02:54:59;;;;;;;5.43;3.17;;;;;;;8.88;100.00;99255.19;5056257;28;20286;-74
2023/03/23 02:57:27;;;;;;;4.23;2.83;;;;;;;8.98;100.00;99263.06;5056831;28;20198;-74
2023/03/23 02:59:55;;;;;;;4.53;2.70;;;;;;;8.94;100.00;99266.75;5056591;28;20223;-74
2023/03/23 03:02:24;;;;;;;6.33;3.73;;;;;;;8.98;100.00;99270.72;5056645;28;20582;-74
2023/03/23 03:04:58;;;;;;;3.57;2.63;;;;;;;8.82;100.00;99265.78;5055998;28;20730;-74
2023/03/23 03:07:38;;;;;;;4.33;2.77;;;;;;;8.91;100.00;99266.94;5056404;28;20203;-74
2023/03/23 03:10:12;;;;;;;7.93;3.60;;;;;;;8.89;100.00;99264.47;5056073;28;20231;-74
2023/03/23 03:12:48;;;;;;;6.03;2.93;;;;;;;8.83;100.00;99265.66;5056368;28;20203;-75
2023/03/23 03:15:27;;;;;;;6.53;3.27;;;;;;;8.94;100.00;99264.19;5056183;28;20315;-74
2023/03/23 03:18:01;;;;;;;5.93;3.13;;;;;;;9.08;100.00;99271.78;5056179;28;20195;-74
2023/03/23 03:20:31;;;;;;;4.27;2.93;;;;;;;9.00;100.00;99272.28;5056026;28;20199;-74
2023/03/23 03:23:01;;;;;;;5.13;2.83;;;;;;;9.02;100.00;99274.75;5055932;28;20210;-74
2023/03/23 03:25:29;;;;;;;4.83;3.17;;;;;;;9.11;100.00;99286.91;5055940;28;20761;-74
2023/03/23 03:27:57;;;;;;;2.93;2.47;;;;;;;9.24;100.00;99290.31;5056163;28;20597;-74
2023/03/23 03:30:31;;;;;;;3.67;2.73;;;;;;;9.30;100.00;99302.66;5055926;28;20317;-74
2023/03/23 03:33:00;;;;;;;5.10;3.40;;;;;;;9.23;100.00;99298.88;5056035;28;20207;-75
2023/03/23 03:35:27;;;;;;;4.43;2.80;;;;;;;9.34;100.00;99310.13;5055856;28;20617;-74
2023/03/23 03:37:55;;;;;;;4.03;2.63;;;;;;;9.41;100.00;99307.09;5055933;28;20717;-74
2023/03/23 03:40:24;;;;;;;5.80;2.63;;;;;;;9.38;100.00;99301.38;5055817;28;20213;-74
2023/03/23 03:42:51;;;;;;;8.53;3.80;;;;;;;9.29;100.00;99303.59;5055691;28;20195;-73
2023/03/23 03:45:19;;;;;;;7.83;4.20;;;;;;;9.20;100.00;99305.91;5055938;28;20229;-75
2023/03/23 03:47:47;;;;;;;4.07;3.57;;;;;;;9.07;100.00;99305.84;5055887;28;20207;-74
2023/03/23 03:50:14;;;;;;;4.03;2.10;;;;;;;9.06;100.00;99299.13;5054469;28;20743;-74
2023/03/23 03:52:41;;;;;;;2.70;1.77;;;;;;;9.19;100.00;99301.72;5052901;28;20390;-74
2023/03/23 03:55:10;;;;;;;3.20;2.73;;;;;;;9.36;100.00;99303.19;5052535;28;20272;-74
2023/03/23 03:57:38;;;;;;;4.03;2.60;;;;;;;9.37;100.00;99304.84;5052606;28;20203;-74
2023/03/23 04:00:16;;;;;;;2.87;2.00;;;;;;;9.41;100.00;99301.19;5052240;28;20234;-73
2023/03/23 04:02:47;;;;;;;6.40;3.57;;;;;;;9.35;100.00;99302.38;5052296;28;20203;-74
2023/03/23 04:05:14;;;;;;;5.50;3.10;;;;;;;9.33;100.00;99304.22;5052170;28;20187;-74
2023/03/23 04:07:41;;;;;;;6.57;3.10;;;;;;;9.36;100.00;99300.66;5052324;28;20206;-73
2023/03/23 04:10:10;;;;;;;3.90;3.13;;;;;;;9.41;100.00;99303.72;5052450;28;20285;-74
2023/03/23 04:12:39;;;;;;;4.57;3.27;;;;;;;9.43;100.00;99304.47;5052472;28;20207;-74
2023/03/23 04:15:07;;;;;;;5.80;3.77;;;;;;;9.43;100.00;99307.00;5052210;28;20612;-74
2023/03/23 04:17:34;;;;;;;4.37;2.73;;;;;;;9.36;100.00;99314.22;5052301;28;20215;-74
2023/03/23 04:20:11;;;;;;;7.20;3.67;;;;;;;9.27;100.00;99307.97;5051894;28;20427;-74
2023/03/23 04:22:38;;;;;;;4.80;3.50;;;;;;;9.12;100.00;99321.69;5052340;28;20214;-74
2023/03/23 04:25:06;;;;;;;3.63;2.67;;;;;;;9.01;100.00;99308.78;5051856;28;20576;-74
2023/03/23 04:27:33;;;;;;;5.60;3.00;;;;;;;9.05;100.00;99305.16;5052421;28;20234;-74
2023/03/23 04:30:02;;;;;;;5.50;2.80;;;;;;;9.13;100.00;99310.56;5051595;28;20730;-74
2023/03/23 04:32:30;;;;;;;5.70;3.03;;;;;;;9.16;100.00;99307.84;5052059;28;20303;-73
2023/03/23 04:34:57;;;;;;;5.30;3.77;;;;;;;9.10;100.00;99315.84;5051837;28;20245;-74
2023/03/23 04:37:28;;;;;;;5.70;2.57;;;;;;;8.96;100.00;99311.63;5051993;28;20667;-73
2023/03/23 04:40:00;;;;;;;4.43;3.33;;;;;;;8.89;100.00;99319.75;5051831;28;20227;-74
2023/03/23 04:42:28;;;;;;;3.87;2.80;;;;;;;9.05;100.00;99316.16;5051619;28;20199;-74
2023/03/23 04:44:55;;;;;;;4.50;3.10;;;;;;;9.09;100.00;99316.78;5051390;28;20215;-73
2023/03/23 04:47:24;;;;;;;3.90;3.17;;;;;;;8.97;100.00;99322.66;5051703;28;20663;-74
2023/03/23 04:49:51;;;;;;;3.60;3.00;;;;;;;9.06;100.00;99324.63;5051340;28;20215;-74
2023/03/23 04:52:20;;;;;;;6.23;4.23;;;;;;;8.97;100.00;99328.56;5051620;28;20214;-73
2023/03/23 04:54:47;;;;;;;6.50;4.07;;;;;;;9.12;100.00;99326.78;5051299;28;20231;-73
2023/03/23 04:57:15;;;;;;;4.67;3.40;;;;;;;9.12;100.00;99326.78;5051420;28;20725;-73
2023/03/23 04:59:43;;;;;;;4.20;3.50;;;;;;;9.19;100.00;99338.25;5051240;28;20234;-74
2023/03/23 05:02:10;;;;;;;5.17;3.80;;;;;;;9.16;100.00;99328.25;5050829;28;20260;-74
2023/03/23 05:04:40;;;;;;;5.87;3.27;;;;;;;9.24;100.00;99337.97;5051134;28;20231;-75
2023/03/23 05:07:08;;;;;;;7.43;3.83;;;;;;;9.26;100.00;99336.97;5051486;28;20196;-74
2023/03/23 05:09:35;;;;;;;6.13;4.53;;;;;;;9.20;100.00;99339.09;5051132;28;20231;-74
2023/03/23 05:12:05;;;;;;;5.77;4.13;;;;;;;9.34;100.00;99340.75;5051294;28;20257;-73
2023/03/23 05:14:32;;;;;;;6.37;3.70;;;;;;;9.30;100.00;99338.38;5051016;28;20643;-74
2023/03/23 05:16:59;;;;;;;7.53;4.83;;;;;;;9.16;100.00;99338.47;5051215;28;20872;-74
2023/03/23 05:19:27;;;;;;;5.63;3.27;;;;;;;9.13;100.00;99338.63;5051002;28;20219;-73
2023/03/23 05:22:02;;;;;;;6.03;3.50;;;;;;;9.34;100.00;99345.84;5051028;28;20210;-74
2023/03/23 05:24:32;;;;;;;3.70;2.67;;;;;;;9.27;100.00;99343.69;5051067;28;20679;-74
2023/03/23 05:26:59;;;;;;;7.83;3.73;;;;;;;9.23;100.00;99344.81;5050908;28;20199;-73
2023/03/23 05:29:26;;;;;;;3.40;3.10;;;;;;;9.36;100.00;99344.03;5050730;28;20238;-73
2023/03/23 05:31:55;;;;;;;4.23;3.30;;;;;;;9.38;100.00;99349.88;5050773;28;20269;-74
2023/03/23 05:34:22;;;;;;;5.87;3.10;;;;;;;9.47;100.00;99351.81;5050624;28;20259;-74
2023/03/23 05:36:53;;;;;;;4.43;3.20;;;;;;;9.44;100.00;99354.56;5050797;28;20221;-74
2023/03/23 05:39:21;;;;;;;5.40;3.33;;;;;;;9.44;100.00;99352.03;5050732;28;20231;-74
2023/03/23 05:41:48;;;;;;;4.73;2.70;;;;;;;9.46;100.00;99350.19;5050795;28;20206;-74
2023/03/23 05:44:15;;;;;;;7.83;3.90;;;;;;;9.44;100.00;99349.47;5050482;28;20234;-74
2023/03/23 05:46:43;;;;;;;4.57;3.20;;;;;;;9.47;100.00;99346.72;5050375;28;20195;-74
2023/03/23 05:49:09;;;;;;;4.70;3.10;;;;;;;9.53;100.00;99347.13;5050155;28;20308;-74
2023/03/23 05:51:36;;;;;;;4.60;3.53;;;;;;;9.71;100.00;99355.34;5050561;28;20195;-74
2023/03/23 05:54:04;;;;;;;6.73;3.60;;;;;;;9.77;100.00;99354.13;5050448;28;20219;-74
2023/03/23 05:56:32;;;;;;;5.80;2.97;;;;;;;9.63;100.00;99359.31;5050098;28;20627;-73
2023/03/23 05:58:59;;;;;;;6.37;3.70;;;;;;;9.72;100.00;99372.31;5050452;28;20227;-74
2023/03/23 06:01:26;;;;;;;8.73;2.87;;;;;;;9.79;100.00;99371.94;5050358;28;20652;-74
2023/03/23 06:03:58;;;;;;;4.37;3.13;;;;;;;9.80;100.00;99371.00;5050101;28;20310;-74
2023/03/23 06:06:25;;;;;;;4.50;3.10;;;;;;;9.88;100.00;99368.78;5050263;28;20199;-74
2023/03/23 06:08:52;;;;;;;5.03;3.63;;;;;;;9.89;100.00;99365.28;5050225;28;20231;-74
2023/03/23 06:11:19;;;;;;;6.90;3.10;;;;;;;9.97;100.00;99366.44;5050137;28;20227;-74
2023/03/23 06:13:48;;;;;;;5.33;2.83;;;;;;;9.98;100.00;99362.16;5049159;28;20267;-74
2023/03/23 06:16:16;;;;;;;4.03;3.57;;;;;;;10.20;100.00;99367.47;5049869;28;20234;-73
2023/03/23 06:18:42;;;;;;;4.83;2.73;;;;;;;10.10;100.00;99368.22;5050062;28;20229;-74
2023/03/23 06:21:10;;;;;;;7.00;3.67;;;;;;;10.11;100.00;99370.66;5049718;28;20204;-74
2023/03/23 06:23:37;;;;;;;3.57;2.73;;;;;;;10.35;100.00;99364.84;5050309;28;20279;-74
2023/03/23 06:26:06;;;;;;;4.33;2.67;;;;;;;10.59;100.00;99373.44;5050061;28;20199;-74
2023/03/23 06:28:33;;;;;;;5.20;3.40;;;;;;;10.89;100.00;99374.84;5050112;28;20223;-75
2023/03/23 06:31:03;;;;;;;6.00;3.57;;;;;;;11.07;100.00;99383.78;5049846;28;20210;-75
2023/03/23 06:33:30;;;;;;;8.83;3.40;;;;;;;11.12;100.00;99385.22;5050285;28;20509;-75
2023/03/23 06:35:57;;;;;;;7.63;3.90;;;;;;;10.99;100.00;99390.34;5049648;28;20257;-74
2023/03/23 06:38:24;;;;;;;9.60;4.27;;;;;;;11.17;100.00;99398.50;5049951;28;20314;-75
2023/03/23 06:40:53;;;;;;;6.20;3.50;;;;;;;11.30;100.00;99406.97;5049824;28;20210;-73
2023/03/23 06:43:20;;;;;;;5.97;3.33;;;;;;;11.24;100.00;99412.50;5049821;28;20215;-74
2023/03/23 06:45:47;;;;;;;4.83;3.23;;;;;;;11.14;100.00;99414.06;5049721;28;20203;-73
2023/03/23 06:48:15;;;;;;;8.50;3.57;;;;;;;11.06;100.00;99420.53;5049842;28;20226;-74
2023/03/23 06:50:44;;;;;;;6.83;3.70;;;;;;;10.86;100.00;99426.19;5049742;28;20664;-75
2023/03/23 06:53:11;;;;;;;5.50;4.07;;;;;;;11.00;100.00;99420.97;5049673;28;20223;-75
2023/03/23 06:55:38;;;;;;;6.10;3.13;;;;;;;11.12;100.00;99416.75;5049548;28;20254;-74
2023/03/23 06:58:06;;;;;;;10.17;3.97;;;;;;;11.27;100.00;99431.03;5049849;28;20215;-74
2023/03/23 07:00:34;;;;;;;5.47;2.90;;;;;;;11.40;100.00;99430.97;5049635;28;20207;-74
2023/03/23 07:03:01;;;;;;;6.83;4.07;;;;;;;11.43;100.00;99435.91;5049909;28;20282;-74
2023/03/23 07:05:30;;;;;;;7.10;3.30;;;;;;;11.27;100.00;99436.16;5049821;28;20230;-74
2023/03/23 07:07:56;;;;;;;4.10;3.27;;;;;;;11.14;100.00;99439.66;5049669;28;20655;-74
2023/03/23 07:10:24;;;;;;;5.40;3.50;;;;;;;11.28;100.00;99448.00;5049508;28;20195;-74
2023/03/23 07:12:51;;;;;;;5.53;3.60;;;;;;;11.40;100.00;99436.09;5049453;28;22068;-74
2023/03/23 07:15:18;;;;;;;6.10;4.60;;;;;;;11.41;100.00;99442.88;5049777;28;20615;-75
2023/03/23 07:17:45;;;;;;;7.67;4.00;;;;;;;11.66;100.00;99441.13;5049307;28;20202;-74
2023/03/23 07:20:14;;;;;;;6.57;3.67;;;;;;;11.65;100.00;99444.63;5049309;28;20250;-74
2023/03/23 07:22:42;;;;;;;6.27;3.43;;;;;;;11.87;100.00;99439.66;5049419;28;20227;-74
2023/03/23 07:25:10;;;;;;;7.30;3.53;;;;;;;12.20;100.00;99446.63;5050218;28;20207;-75
2023/03/23 07:27:37;;;;;;;6.40;3.43;;;;;;;12.41;100.00;99446.78;5053238;28;20668;-74
2023/03/23 07:30:05;;;;;;;6.03;3.77;;;;;;;12.49;100.00;99450.53;5052724;28;20227;-74
2023/03/23 07:32:32;;;;;;;7.07;3.67;;;;;;;12.63;100.00;99448.56;5053127;28;20599;-74
2023/03/23 07:34:59;;;;;;;5.37;3.63;;;;;;;12.52;100.00;99455.44;5052652;28;20235;-74
2023/03/23 07:37:26;;;;;;;8.17;3.50;;;;;;;12.70;100.00;99459.19;5052952;28;20205;-74
2023/03/23 07:39:54;;;;;;;8.83;3.87;;;;;;;12.78;100.00;99456.88;5052870;28;20284;-74
2023/03/23 07:42:21;;;;;;;6.83;3.87;;;;;;;12.75;100.00;99456.28;5052907;28;20219;-74
2023/03/23 07:44:48;;;;;;;7.33;3.80;;;;;;;13.09;100.00;99455.34;5052487;28;20219;-74
2023/03/23 07:47:15;;;;;;;7.43;4.13;;;;;;;13.99;100.00;99450.03;5052899;28;20199;-75
2023/03/23 07:49:42;;;;;;;6.03;3.47;;;;;;;14.50;100.00;99454.41;5052876;28;20785;-74
2023/03/23 07:52:10;;;;;;;9.57;4.43;;;;;;;14.29;100.00;99455.38;5052756;28;20307;-75
2023/03/23 07:54:37;;;;;;;10.43;4.23;;;;;;;14.37;100.00;99451.25;5052712;28;20224;-74
2023/03/23 07:57:06;;;;;;;6.83;3.87;;;;;;;14.37;100.00;99447.81;5052542;28;20250;-73
2023/03/23 07:59:33;;;;;;;11.03;4.93;;;;;;;14.45;100.00;99455.72;5053127;28;20310;-73
2023/03/23 08:02:00;;;;;;;8.33;4.63;;;;;;;14.54;100.00;99457.56;5052501;28;20206;-74
2023/03/23 08:04:27;;;;;;;10.13;4.57;;;;;;;14.49;100.00;99457.13;5052280;28;20311;-75
2023/03/23 08:06:54;;;;;;;10.07;5.50;;;;;;;13.89;100.00;99453.47;5052333;28;20199;-75
2023/03/23 08:09:21;;;;;;;10.77;5.47;;;;;;;14.34;100.00;99458.38;5052753;28;20233;-75
2023/03/23 08:11:48;;;;;;;9.87;4.93;;;;;;;14.49;100.00;99454.56;5052328;28;20199;-75
2023/03/23 08:14:16;;;;;;;10.77;4.83;;;;;;;14.74;100.00;99460.25;5052294;28;20227;-75
2023/03/23 08:16:43;;;;;;;12.17;4.60;;;;;;;14.41;100.00;99459.50;5052248;28;20229;-74
2023/03/23 08:19:10;;;;;;;8.90;4.57;;;;;;;14.25;100.00;99455.63;5052268;28;20223;-75
2023/03/23 08:21:37;;;;;;;9.87;4.67;;;;;;;14.20;100.00;99456.94;5052354;28;20214;-75
2023/03/23 08:24:05;;;;;;;9.27;4.57;;;;;;;14.80;100.00;99454.59;5052163;28;20606;-75
2023/03/23 08:26:32;;;;;;;10.80;4.87;;;;;;;15.54;100.00;99457.69;5052134;28;20233;-75
2023/03/23 08:28:59;;;;;;;8.63;4.37;;;;;;;16.21;95.10;99457.84;5052026;28;20230;-75
2023/03/23 08:31:28;;;;;;;6.93;3.90;;;;;;;15.78;99.64;99448.78;5051836;28;20280;-75
2023/03/23 08:33:56;;;;;;;9.83;5.07;;;;;;;16.21;100.00;99452.69;5052108;28;20626;-75
2023/03/23 08:36:23;;;;;;;10.23;4.80;;;;;;;17.05;90.59;99457.09;5050998;28;20228;-75
2023/03/23 08:38:52;;;;;;;8.50;5.17;;;;;;;17.05;87.12;99454.53;5051914;28;20225;-75
2023/03/23 08:41:19;;;;;;;8.80;5.13;;;;;;;17.32;94.62;99454.50;5051827;28;20742;-75
2023/03/23 08:43:46;;;;;;;7.27;4.13;;;;;;;17.68;88.87;99446.78;5051532;28;20227;-76
2023/03/23 08:46:13;;;;;;;9.00;4.50;;;;;;;17.51;87.12;99447.56;5051571;28;20282;-75
2023/03/23 08:48:41;;;;;;;10.13;4.77;;;;;;;17.24;90.70;99453.59;5051597;28;20222;-75
2023/03/23 08:51:08;;;;;;;9.77;4.67;;;;;;;17.18;90.44;99448.03;5051362;28;20201;-75
2023/03/23 08:53:36;;;;;;;7.70;4.67;;;;;;;16.86;92.69;99448.47;5051502;28;20223;-75
2023/03/23 08:56:08;;;;;;;8.70;5.07;;;;;;;16.02;90.52;99448.34;5051205;28;20317;-75
2023/03/23 08:58:35;;;;;;;9.60;4.83;;;;;;;15.60;92.98;99454.56;5051664;28;20643;-75
2023/03/23 09:01:02;;;;;;;10.43;4.50;;;;;;;15.88;98.13;99452.16;5051322;28;20477;-75
2023/03/23 09:03:29;;;;;;;9.30;4.40;;;;;;;15.84;100.00;99445.66;5051592;28;20233;-75
2023/03/23 09:06:01;;;;;;;8.37;4.63;;;;;;;15.90;100.00;99445.09;5051258;28;20284;-75
2023/03/23 09:08:29;;;;;;;8.63;4.17;;;;;;;16.15;100.00;99445.50;5051412;28;20611;-75
2023/03/23 09:10:56;;;;;;;5.60;3.57;;;;;;;15.86;98.29;99448.91;5051043;28;20596;-75
2023/03/23 09:13:23;;;;;;;6.73;4.60;;;;;;;16.01;89.20;99447.53;5051264;28;20249;-75
2023/03/23 09:15:51;;;;;;;8.57;4.70;;;;;;;15.97;91.90;99443.63;5051319;28;20232;-74
2023/03/23 09:18:18;;;;;;;8.70;4.13;;;;;;;16.63;91.70;99442.00;5051267;28;20661;-74
2023/03/23 09:20:45;;;;;;;7.60;4.20;;;;;;;16.42;83.75;99444.78;5050890;28;20257;-74
2023/03/23 09:23:15;;;;;;;7.67;4.40;;;;;;;16.81;87.80;99445.50;5050841;28;20229;-74
2023/03/23 09:25:42;;;;;;;8.63;4.23;;;;;;;17.79;86.01;99444.00;5051269;28;20477;-75
2023/03/23 09:28:09;;;;;;;6.53;4.13;;;;;;;18.57;80.30;99447.66;5051131;28;20234;-75
2023/03/23 09:30:37;;;;;;;8.00;4.47;;;;;;;18.75;78.10;99446.63;5050697;28;20219;-76
2023/03/23 09:33:06;;;;;;;7.23;4.37;;;;;;;18.70;81.21;99443.69;5050700;28;20216;-75
2023/03/23 09:35:34;;;;;;;8.70;4.13;;;;;;;17.74;86.03;99442.78;5050667;28;20619;-75
2023/03/23 09:38:01;;;;;;;10.83;4.83;;;;;;;17.51;89.90;99437.22;5050809;28;20198;-76
2023/03/23 09:40:33;;;;;;;8.00;4.70;;;;;;;16.71;99.20;99439.53;5050546;28;20206;-76
2023/03/23 09:43:21;;;;;;;10.87;4.97;;;;;;;16.71;96.76;99442.13;5050514;28;20263;-75
2023/03/23 09:45:56;;;;;;;9.37;5.00;;;;;;;16.56;99.52;99431.44;5050616;28;20259;-75
2023/03/23 09:48:35;;;;;;;10.60;4.60;;;;;;;16.12;99.77;99430.31;5050424;28;20220;-75
2023/03/23 09:51:10;;;;;;;11.23;4.70;;;;;;;15.90;100.00;99434.78;5050234;28;20210;-75
2023/03/23 09:53:41;;;;;;;8.73;4.60;;;;;;;15.70;100.00;99433.97;5050908;28;20218;-75
2023/03/23 09:56:13;;;;;;;9.57;5.00;;;;;;;15.81;100.00;99436.41;5050190;28;20226;-76
2023/03/23 09:58:47;;;;;;;10.67;5.23;;;;;;;15.65;100.00;99440.44;5050603;28;20606;-76
2023/03/23 10:01:18;;;;;;;8.23;4.47;;;;;;;15.79;98.83;99437.50;5049977;28;20674;-76
2023/03/23 10:03:46;;;;;;;9.33;4.47;;;;;;;15.62;100.00;99432.06;5050136;28;20218;-75
2023/03/23 10:06:17;;;;;;;8.10;4.40;;;;;;;15.56;96.69;99430.00;5050005;28;20695;-75
2023/03/23 10:08:48;;;;;;;8.50;4.10;;;;;;;15.65;99.37;99435.28;5049912;28;20651;-76
2023/03/23 10:11:24;;;;;;;8.20;4.60;;;;;;;15.77;97.72;99434.25;5050041;28;20203;-75
2023/03/23 10:14:06;;;;;;;7.37;4.03;;;;;;;15.92;97.45;99438.06;5050148;28;20292;-75
2023/03/23 10:16:37;;;;;;;9.37;4.77;;;;;;;16.28;100.00;99439.09;5050080;28;20245;-75
2023/03/23 10:19:18;;;;;;;8.47;4.50;;;;;;;16.55;96.48;99436.72;5050270;28;20220;-75
2023/03/23 10:21:52;;;;;;;7.20;4.17;;;;;;;17.37;97.42;99429.03;5049960;28;20242;-75
2023/03/23 10:24:26;;;;;;;11.70;5.00;;;;;;;17.49;91.60;99423.66;5050033;28;20227;-75
2023/03/23 10:27:06;;;;;;;9.53;4.60;;;;;;;17.22;89.41;99435.66;5050036;28;20200;-75
2023/03/23 10:29:37;;;;;;;10.43;5.33;;;;;;;16.56;95.95;99435.78;5049831;28;20630;-75
2023/03/23 10:32:12;;;;;;;8.30;4.70;;;;;;;15.66;100.00;99440.31;5050019;28;20579;-75
2023/03/23 10:34:45;;;;;;;10.47;5.57;;;;;;;15.01;100.00;99431.38;5050275;28;20231;-75
2023/03/23 10:37:15;;;;;;;12.50;6.07;;;;;;;14.85;100.00;99437.00;5050655;28;20296;-77
2023/03/23 10:39:50;;;;;;;10.47;5.40;;;;;;;14.95;100.00;99432.69;5050113;28;20228;-75
2023/03/23 10:42:26;;;;;;;9.97;4.93;;;;;;;14.82;100.00;99422.63;5049716;28;20204;-75
2023/03/23 10:44:53;;;;;;;9.20;5.23;;;;;;;14.87;100.00;99429.97;5049679;28;20228;-75
2023/03/23 10:47:20;;;;;;;7.57;5.27;;;;;;;14.74;100.00;99425.03;5049799;28;20770;-75
2023/03/23 10:49:51;;;;;;;8.47;5.57;;;;;;;14.67;100.00;99418.78;5049540;28;20711;-74
2023/03/23 10:52:29;;;;;;;10.13;4.70;;;;;;;14.48;100.00;99414.31;5049695;28;20218;-74
2023/03/23 10:54:59;;;;;;;9.47;4.33;;;;;;;14.68;100.00;99416.06;5049575;28;20315;-74
2023/03/23 10:57:29;;;;;;;8.50;4.33;;;;;;;14.59;100.00;99416.84;5049467;28;20236;-74
2023/03/23 11:00:05;;;;;;;8.73;4.63;;;;;;;14.55;100.00;99410.34;5050536;28;20280;-74
2023/03/23 11:02:33;;;;;;;9.17;4.90;;;;;;;14.41;100.00;99418.34;5053484;28;20215;-73
2023/03/23 11:05:03;;;;;;;10.67;5.60;;;;;;;14.20;100.00;99416.63;5053409;28;20228;-74
2023/03/23 11:07:34;;;;;;;10.93;4.80;;;;;;;14.10;100.00;99420.88;5053546;28;20290;-74
2023/03/23 11:10:16;;;;;;;7.50;3.70;;;;;;;14.29;100.00;99421.94;5053650;28;20219;-74
2023/03/23 11:12:47;;;;;;;8.50;4.27;;;;;;;14.16;100.00;99415.22;5054923;28;20207;-74
2023/03/23 11:15:30;;;;;;;10.23;4.83;;;;;;;14.16;100.00;99410.06;5053540;28;20211;-74
2023/03/23 11:18:03;;;;;;;7.70;4.27;;;;;;;13.91;100.00;99401.00;5053476;28;20612;-74
2023/03/23 11:20:36;;;;;;;8.17;4.43;;;;;;;14.04;100.00;99405.94;5053123;28;20200;-74
2023/03/23 11:23:18;;;;;;;5.77;3.50;;;;;;;14.11;100.00;99401.94;5053071;28;20227;-74
2023/03/23 11:25:55;;;;;;;6.57;4.10;;;;;;;14.26;100.00;99400.66;5053298;28;20207;-74
2023/03/23 11:28:28;;;;;;;10.53;6.13;;;;;;;14.50;100.00;99400.38;5053587;28;20603;-74
2023/03/23 11:30:57;;;;;;;8.73;4.50;;;;;;;14.69;100.00;99402.28;5053238;28;20199;-74
2023/03/23 11:33:25;;;;;;;7.30;4.37;;;;;;;14.82;100.00;99401.22;5053070;28;20310;-74
2023/03/23 11:35:55;;;;;;;7.63;4.33;;;;;;;14.83;100.00;99400.28;5052932;28;20710;-75
2023/03/23 11:38:25;;;;;;;10.07;5.33;;;;;;;14.90;100.00;99399.63;5052917;28;20235;-75
2023/03/23 11:40:53;;;;;;;10.93;5.33;;;;;;;14.70;100.00;99397.94;5053289;28;20200;-74